createdAt,value
2018-09-05T00:12:23.338Z,17.97
2018-09-05T00:33:02.599Z,17.73
2018-09-05T00:53:47.088Z,17.46
2018-09-05T01:14:29.428Z,17.40
2018-09-05T01:35:14.199Z,17.06
2018-09-05T01:55:52.874Z,16.83
2018-09-05T02:16:37.362Z,16.64
2018-09-05T02:37:18.474Z,16.48
2018-09-05T02:58:03.035Z,16.38
2018-09-05T03:18:46.221Z,16.19
2018-09-05T03:39:27.334Z,16.13
2018-09-05T04:00:08.952Z,15.90
2018-09-05T04:20:48.935Z,15.85
2018-09-05T04:41:28.199Z,15.65
2018-09-05T05:02:10.541Z,15.50
2018-09-05T05:22:53.799Z,15.38
2018-09-05T05:43:41.977Z,15.40
2018-09-05T06:04:22.469Z,15.47
2018-09-05T06:25:05.730Z,15.71
2018-09-05T06:45:44.071Z,16.00
2018-09-05T07:06:25.491Z,16.37
2018-09-05T07:27:10.592Z,16.77
2018-09-05T07:47:52.019Z,17.22
2018-09-05T08:08:32.197Z,17.73
2018-09-05T08:29:12.454Z,18.31
2018-09-05T08:49:54.727Z,18.90
2018-09-05T09:10:33.068Z,19.51
2018-09-05T09:31:16.329Z,20.30
2018-09-05T09:52:05.036Z,20.86
2018-09-05T10:30:45.749Z,21.93
2018-09-05T10:51:35.786Z,22.34
2018-09-05T11:12:20.682Z,22.93
2018-09-05T11:32:57.689Z,23.36
2018-09-05T11:53:37.863Z,23.76
2018-09-05T12:14:16.209Z,24.16
2018-09-05T12:34:56.403Z,24.54
2018-09-05T12:55:37.812Z,24.77
2018-09-05T13:16:23.375Z,25.04
2018-09-05T13:37:03.415Z,25.49
2018-09-05T13:57:45.749Z,25.84
2018-09-05T14:18:29.013Z,26.49
2018-09-05T14:39:15.347Z,26.36
2018-09-05T14:59:57.050Z,27.02
2018-09-05T15:20:36.023Z,27.11
2018-09-05T15:41:13.139Z,26.75
2018-09-05T16:01:54.834Z,26.17
2018-09-05T16:22:36.898Z,25.56
2018-09-05T16:43:21.076Z,24.88
2018-09-05T17:04:04.338Z,24.39
2018-09-05T17:24:49.749Z,23.99
2018-09-05T17:45:30.857Z,23.83
2018-09-05T18:06:15.345Z,23.52
2018-09-05T18:27:04.755Z,23.11
2018-09-05T18:47:48.256Z,22.72
2018-09-05T19:08:32.573Z,22.20
2018-09-05T19:29:13.685Z,21.77
2018-09-05T19:50:02.093Z,21.38
2018-09-05T20:10:45.531Z,20.93
2018-09-05T20:31:23.702Z,20.65
2018-09-05T20:52:07.937Z,20.17
2018-09-05T21:12:47.145Z,19.81
2018-09-05T21:33:31.029Z,19.54
2018-09-05T21:54:09.669Z,19.26
2018-09-05T22:32:59.823Z,18.82
2018-09-05T23:12:50.502Z,18.48
2018-09-05T23:33:33.754Z,18.52
2018-09-05T23:54:16.094Z,18.62
